Date,TemperatureHighF,TemperatureAvgF,TemperatureLowF,DewpointHighF,DewpointAvgF,DewpointLowF,HumidityHigh,HumidityAvg,HumidityLow,PressureMaxIn,PressureMinIn,WindSpeedMaxMPH,WindSpeedAvgMPH,GustSpeedMaxMPH,PrecipitationSumIn
2013-7-6,77.0,73.6,69.6,75.6,72.2,69.4,99,95,89,29.93,29.86,0,0,2,2.10
2013-7-7,99.7,80.7,70.0,78.7,73.3,69.5,99,80,49,29.95,29.87,2,0,3,0.04
2013-7-8,84.4,84.4,84.4,73.2,73.2,73.2,69,69,69,29.87,29.87,0,0,2,0.00
2013-7-9,84.4,83.3,75.4,73.9,73.2,72.4,93,72,69,29.95,29.87,0,0,2,0.05
2013-7-10,75.9,73.7,73.6,73.4,72.2,72.0,95,95,93,29.93,29.92,0,0,1,0.00
2013-7-11,73.6,73.6,73.6,72.1,72.1,72.1,95,95,95,29.92,29.92,0,0,0,0.00
2013-7-12,73.6,73.6,73.6,72.1,72.1,72.1,95,95,95,29.92,29.92,0,0,0,0.00
2013-7-13,73.6,73.6,73.6,72.1,72.1,72.1,95,95,95,29.92,29.92,0,0,0,0.00
2013-7-14,73.6,73.6,73.6,72.1,72.1,72.1,95,95,95,29.92,29.92,0,0,0,0.00
2013-7-15,73.6,73.6,73.6,72.1,72.1,72.1,95,95,95,29.92,29.92,0,0,0,0.00
2013-7-16,73.6,73.6,73.6,72.1,72.1,72.1,95,95,95,29.92,29.92,0,0,0,0.00
2013-7-17,73.6,73.6,73.6,72.1,72.1,72.1,95,95,95,29.92,29.92,0,0,0,0.00
2013-7-18,73.6,73.6,73.6,72.1,72.1,72.1,95,95,95,29.92,29.92,0,0,0,0.00
2013-7-19,73.6,73.6,73.6,72.1,72.1,72.1,95,95,95,29.92,29.92,0,0,0,0.00
2013-7-20,73.6,73.6,73.6,72.1,72.1,72.1,95,95,95,29.92,29.92,0,0,0,0.00
2013-7-21,73.6,73.6,73.6,72.1,72.1,72.1,95,95,95,29.92,29.92,0,0,0,0.00
2013-7-22,73.6,73.6,73.6,72.1,72.1,72.1,95,95,95,29.92,29.92,0,0,0,0.00
2013-7-23,73.6,73.6,73.6,72.1,72.1,72.1,95,95,95,29.92,29.92,0,0,0,0.00
2013-7-24,73.6,73.6,73.6,72.1,72.1,72.1,95,95,95,29.92,29.92,0,0,0,0.00
2013-7-25,73.6,73.6,73.6,72.1,72.1,72.1,95,95,95,29.92,29.92,0,0,0,0.00
2013-7-26,73.6,73.6,73.6,72.1,72.1,72.1,95,95,95,29.92,29.92,0,0,0,0.00
2013-7-27,73.6,73.6,73.6,72.1,72.1,72.1,95,95,95,29.92,29.92,0,0,0,0.00
2013-7-28,73.6,73.6,73.6,72.1,72.1,72.1,95,95,95,29.92,29.92,0,0,0,0.00
2013-7-29,73.6,72.9,65.5,72.1,70.9,60.2,95,93,74,29.93,29.92,0,0,2,2.53
2013-7-30,96.8,77.5,62.8,74.6,68.0,60.1,99,75,46,29.96,29.82,3,0,7,0.27
2013-7-31,73.8,71.9,67.5,73.3,71.6,67.2,99,99,99,29.88,29.78,3,0,6,1.45